createdAt,value
2023-03-24T00:01:12.124Z,8.99
2023-03-24T00:03:40.431Z,8.96
2023-03-24T00:06:09.447Z,8.93
2023-03-24T00:08:38.600Z,8.90
2023-03-24T00:11:11.723Z,8.91
2023-03-24T00:13:40.957Z,8.92
2023-03-24T00:16:11.744Z,8.93
2023-03-24T00:18:40.781Z,8.90
2023-03-24T00:21:11.794Z,8.94
2023-03-24T00:23:43.850Z,8.99
2023-03-24T00:26:15.651Z,9.00
2023-03-24T00:28:46.501Z,9.00
2023-03-24T00:31:16.043Z,9.03
2023-03-24T00:33:48.197Z,9.03
2023-03-24T00:36:17.159Z,9.00
2023-03-24T00:38:47.742Z,9.00
2023-03-24T00:41:20.508Z,9.01
2023-03-24T00:43:50.418Z,8.98
2023-03-24T00:46:29.288Z,8.96
2023-03-24T00:49:02.797Z,9.02
2023-03-24T00:51:33.352Z,9.01
2023-03-24T00:54:02.187Z,8.97
2023-03-24T00:56:34.143Z,8.98
2023-03-24T00:59:02.674Z,9.00
2023-03-24T01:01:35.386Z,8.98
2023-03-24T01:04:06.197Z,8.92
2023-03-24T01:06:36.788Z,8.93
2023-03-24T01:09:05.912Z,8.99
2023-03-24T01:11:40.094Z,9.03
2023-03-24T01:14:09.953Z,9.04
2023-03-24T01:16:38.828Z,9.07
2023-03-24T01:19:09.361Z,9.04
2023-03-24T01:21:38.263Z,9.07
2023-03-24T01:24:07.854Z,9.04
2023-03-24T01:26:37.999Z,9.05
2023-03-24T01:29:06.261Z,9.07
2023-03-24T01:31:34.491Z,9.13
2023-03-24T01:34:02.759Z,9.12
2023-03-24T01:36:31.529Z,9.09
2023-03-24T01:39:01.295Z,9.08
2023-03-24T01:41:32.904Z,9.15
2023-03-24T01:44:02.651Z,9.15
2023-03-24T01:46:33.551Z,9.21
2023-03-24T01:49:04.406Z,9.23
2023-03-24T01:51:36.379Z,9.24
2023-03-24T01:54:12.304Z,9.22
2023-03-24T01:56:50.544Z,9.23
2023-03-24T01:59:26.361Z,9.23
2023-03-24T02:02:02.918Z,9.28
2023-03-24T02:04:34.770Z,9.31
2023-03-24T02:07:09.283Z,9.32
2023-03-24T02:09:37.529Z,9.29
2023-03-24T02:12:06.303Z,9.27
2023-03-24T02:14:36.137Z,9.28
2023-03-24T02:17:24.163Z,9.26
2023-03-24T02:20:27.909Z,9.27
2023-03-24T02:23:26.463Z,9.21
2023-03-24T02:26:20.794Z,9.28
2023-03-24T02:28:57.753Z,9.27
2023-03-24T02:32:04.138Z,9.24
2023-03-24T02:34:58.265Z,9.23
2023-03-24T02:37:44.025Z,9.21
2023-03-24T02:40:25.613Z,9.23
2023-03-24T02:43:07.037Z,9.20
2023-03-24T02:45:38.454Z,9.24
2023-03-24T02:48:23.476Z,9.18
2023-03-24T02:50:57.527Z,9.21
2023-03-24T02:53:33.398Z,9.17
2023-03-24T02:56:12.524Z,9.18
2023-03-24T02:58:47.673Z,9.19
2023-03-24T03:01:18.843Z,9.25
2023-03-24T03:03:51.839Z,9.19
2023-03-24T03:06:25.145Z,9.21
2023-03-24T03:08:56.583Z,9.17
2023-03-24T03:11:26.581Z,9.18
2023-03-24T03:14:00.679Z,9.15
2023-03-24T03:16:38.680Z,9.16
2023-03-24T03:19:12.220Z,9.17
2023-03-24T03:21:44.035Z,9.14
2023-03-24T03:24:16.643Z,9.18
2023-03-24T03:26:49.516Z,9.19
2023-03-24T03:29:22.318Z,9.19
2023-03-24T03:31:59.253Z,9.13
2023-03-24T03:34:39.038Z,9.17
2023-03-24T03:37:12.371Z,9.17
2023-03-24T03:39:46.647Z,9.17
2023-03-24T03:42:16.637Z,9.16
2023-03-24T03:44:45.026Z,9.18
2023-03-24T03:47:13.285Z,9.21
2023-03-24T03:49:41.468Z,9.23
2023-03-24T03:52:09.885Z,9.17
2023-03-24T03:54:40.111Z,9.16
2023-03-24T03:57:08.720Z,9.19
2023-03-24T03:59:39.966Z,9.20
2023-03-24T04:02:24.444Z,9.16
2023-03-24T04:05:22.259Z,9.19
2023-03-24T04:08:16.614Z,9.23
2023-03-24T04:11:12.881Z,9.23
2023-03-24T04:13:51.073Z,9.28
2023-03-24T04:16:28.505Z,9.29
2023-03-24T04:19:11.366Z,9.28
2023-03-24T04:21:58.576Z,9.29
2023-03-24T04:24:40.399Z,9.28
2023-03-24T04:27:14.799Z,9.30
2023-03-24T04:29:53.195Z,9.34
2023-03-24T04:32:32.610Z,9.33
2023-03-24T04:35:05.796Z,9.31
2023-03-24T04:37:38.254Z,9.34
2023-03-24T04:40:10.400Z,9.38
2023-03-24T04:42:42.458Z,9.37
2023-03-24T04:45:12.399Z,9.38
2023-03-24T04:47:47.534Z,9.36
2023-03-24T04:50:30.467Z,9.34
2023-03-24T04:52:59.261Z,9.36
2023-03-24T04:56:00.082Z,9.34
2023-03-24T04:58:28.493Z,9.33
2023-03-24T05:00:58.839Z,9.32
2023-03-24T05:03:28.697Z,9.32
2023-03-24T05:05:56.966Z,9.30
2023-03-24T05:08:25.345Z,9.33
2023-03-24T05:10:53.501Z,9.32
2023-03-24T05:13:21.675Z,9.25
2023-03-24T05:15:50.087Z,9.31
2023-03-24T05:18:18.232Z,9.33
2023-03-24T05:20:47.863Z,9.31
2023-03-24T05:23:16.277Z,9.35
2023-03-24T05:25:44.574Z,9.30
2023-03-24T05:28:12.865Z,9.33
2023-03-24T05:30:41.145Z,9.30
2023-03-24T05:33:09.394Z,9.33
2023-03-24T05:35:37.651Z,9.32
2023-03-24T05:38:07.355Z,9.34
2023-03-24T05:40:35.492Z,9.32
2023-03-24T05:43:03.709Z,9.32
2023-03-24T05:45:31.972Z,9.30
2023-03-24T05:48:00.105Z,9.35
2023-03-24T05:50:28.397Z,9.33
2023-03-24T05:52:56.788Z,9.34
2023-03-24T05:55:26.390Z,9.39
2023-03-24T05:57:55.679Z,9.36
2023-03-24T06:00:24.765Z,9.39
2023-03-24T06:02:53.005Z,9.44
2023-03-24T06:05:21.492Z,9.46
2023-03-24T06:07:49.848Z,9.48
2023-03-24T06:10:18.617Z,9.52
2023-03-24T06:12:48.302Z,9.46
2023-03-24T06:15:17.701Z,9.46
2023-03-24T06:17:47.939Z,9.47
2023-03-24T06:20:18.425Z,9.45
2023-03-24T06:22:47.913Z,9.47
2023-03-24T06:25:18.033Z,9.46
2023-03-24T06:27:47.781Z,9.50
2023-03-24T06:30:17.902Z,9.48
2023-03-24T06:32:47.533Z,9.45
2023-03-24T06:35:17.152Z,9.39
2023-03-24T06:37:45.608Z,9.42
2023-03-24T06:40:15.367Z,9.42
2023-03-24T06:42:44.290Z,9.46
2023-03-24T06:45:14.058Z,9.47
2023-03-24T06:47:42.433Z,9.48
2023-03-24T06:50:11.778Z,9.50
2023-03-24T06:52:39.893Z,9.54
2023-03-24T06:55:09.558Z,9.56
2023-03-24T06:57:37.806Z,9.59
2023-03-24T07:00:08.876Z,9.61
2023-03-24T07:02:38.883Z,9.65
2023-03-24T07:05:09.014Z,9.68
2023-03-24T07:08:23.645Z,9.69
2023-03-24T07:10:25.782Z,9.76
2023-03-24T07:12:53.924Z,9.80
2023-03-24T07:15:22.177Z,9.83
2023-03-24T07:17:51.855Z,9.89
2023-03-24T07:20:20.840Z,9.92
2023-03-24T07:22:49.040Z,9.95
2023-03-24T07:25:20.495Z,9.99
2023-03-24T07:27:48.714Z,9.99
2023-03-24T07:30:19.170Z,10.03
2023-03-24T07:32:49.381Z,10.06
2023-03-24T07:35:19.435Z,10.07
2023-03-24T07:37:47.624Z,10.14
2023-03-24T07:40:16.310Z,10.15
2023-03-24T07:42:45.003Z,10.13
2023-03-24T07:45:14.128Z,10.13
2023-03-24T07:47:45.774Z,10.09
2023-03-24T07:50:15.669Z,10.07
2023-03-24T07:52:51.130Z,10.06
2023-03-24T07:55:19.479Z,10.11
2023-03-24T07:57:48.903Z,10.11
2023-03-24T08:00:23.116Z,10.16
2023-03-24T08:02:53.695Z,10.19
2023-03-24T08:05:25.076Z,10.16
2023-03-24T08:07:55.888Z,10.17
2023-03-24T08:10:26.323Z,10.15
2023-03-24T08:12:54.540Z,10.14
2023-03-24T08:15:22.687Z,10.15
2023-03-24T08:17:51.921Z,10.15
2023-03-24T08:20:21.450Z,10.19
2023-03-24T08:22:50.861Z,10.24
2023-03-24T08:25:23.238Z,10.22
2023-03-24T08:27:51.933Z,10.26
2023-03-24T08:30:22.199Z,10.24
2023-03-24T08:32:52.683Z,10.27
2023-03-24T08:35:23.663Z,10.31
2023-03-24T08:37:52.901Z,10.39
2023-03-24T08:40:25.547Z,10.58
2023-03-24T08:42:55.957Z,10.72
2023-03-24T08:45:27.615Z,10.76
2023-03-24T08:47:56.941Z,10.81
2023-03-24T08:50:28.467Z,10.93
2023-03-24T08:52:57.821Z,11.07
2023-03-24T08:55:28.692Z,11.12
2023-03-24T08:57:57.469Z,11.22
2023-03-24T09:00:26.180Z,11.33
2023-03-24T09:02:55.961Z,11.45
2023-03-24T09:05:40.789Z,11.58
2023-03-24T09:08:12.931Z,11.75
2023-03-24T09:10:43.174Z,11.81
2023-03-24T09:13:11.930Z,11.86
2023-03-24T09:15:40.276Z,11.97
2023-03-24T09:18:08.735Z,12.11
2023-03-24T09:20:37.344Z,12.22
2023-03-24T09:23:05.740Z,12.22
2023-03-24T09:25:33.934Z,12.20
2023-03-24T09:28:03.607Z,12.09
2023-03-24T09:30:46.738Z,12.22
2023-03-24T09:33:15.513Z,12.32
2023-03-24T09:35:43.824Z,12.51
2023-03-24T09:38:12.467Z,12.66
2023-03-24T09:40:43.745Z,12.70
2023-03-24T09:43:24.914Z,12.72
2023-03-24T09:45:55.933Z,12.68
2023-03-24T09:48:32.914Z,12.49
2023-03-24T09:51:05.398Z,12.42
2023-03-24T09:53:40.594Z,12.37
2023-03-24T09:56:14.792Z,12.56
2023-03-24T09:58:49.085Z,12.81
2023-03-24T10:01:19.064Z,12.99
2023-03-24T10:03:48.024Z,13.11
2023-03-24T10:06:23.313Z,13.24
2023-03-24T10:08:59.963Z,13.44
2023-03-24T10:11:35.375Z,13.44
2023-03-24T10:14:19.007Z,13.16
2023-03-24T10:16:55.596Z,12.95
2023-03-24T10:19:36.949Z,12.87
2023-03-24T10:22:13.143Z,12.84
2023-03-24T10:24:50.765Z,12.77
2023-03-24T10:27:26.955Z,12.71
2023-03-24T10:30:03.063Z,12.62
2023-03-24T10:32:36.388Z,12.68
2023-03-24T10:35:10.104Z,12.69
2023-03-24T10:37:38.919Z,12.74
2023-03-24T10:40:18.057Z,12.85
2023-03-24T10:42:48.754Z,13.01
2023-03-24T10:45:30.105Z,13.12
2023-03-24T10:48:01.237Z,13.27
2023-03-24T10:50:32.027Z,13.34
2023-03-24T10:53:00.135Z,13.50
2023-03-24T10:55:32.633Z,13.70
2023-03-24T10:58:02.144Z,13.89
2023-03-24T11:00:33.574Z,14.00
2023-03-24T11:03:05.480Z,13.97
2023-03-24T11:05:36.479Z,13.95
2023-03-24T11:08:28.672Z,13.91
2023-03-24T11:10:57.403Z,14.10
2023-03-24T11:13:31.446Z,14.29
2023-03-24T11:16:10.858Z,14.33
2023-03-24T11:18:39.327Z,14.33
2023-03-24T11:21:08.333Z,14.37
2023-03-24T11:23:40.265Z,14.40
2023-03-24T11:26:13.418Z,14.46
2023-03-24T11:28:44.613Z,14.57
2023-03-24T11:31:24.673Z,14.54
2023-03-24T11:33:58.668Z,14.50
2023-03-24T11:36:45.380Z,14.47
2023-03-24T11:39:19.322Z,14.31
2023-03-24T11:42:02.251Z,14.26
2023-03-24T11:44:33.598Z,14.41
2023-03-24T11:47:07.584Z,14.60
2023-03-24T11:49:41.423Z,14.72
2023-03-24T11:52:21.982Z,14.94
2023-03-24T11:54:50.273Z,15.08
2023-03-24T11:57:29.550Z,15.20
2023-03-24T12:00:01.982Z,15.26
2023-03-24T12:02:49.361Z,15.28
2023-03-24T12:05:31.570Z,15.36
2023-03-24T12:08:24.371Z,15.45
2023-03-24T12:11:02.162Z,15.45
2023-03-24T12:13:36.658Z,15.42
2023-03-24T12:16:26.517Z,15.51
2023-03-24T12:19:15.081Z,15.48
2023-03-24T12:21:56.114Z,15.50
2023-03-24T12:24:32.975Z,15.50
2023-03-24T12:27:02.326Z,15.52
2023-03-24T12:29:48.938Z,15.46
2023-03-24T12:32:38.155Z,15.54
2023-03-24T12:35:41.412Z,15.64
2023-03-24T12:38:21.234Z,15.55
2023-03-24T12:41:06.948Z,15.63
2023-03-24T12:43:48.756Z,15.70
2023-03-24T12:46:46.549Z,15.57
2023-03-24T12:49:36.772Z,15.58
2023-03-24T12:52:20.122Z,15.67
2023-03-24T12:54:56.583Z,15.63
2023-03-24T12:57:28.508Z,15.57
2023-03-24T13:00:08.495Z,15.67
2023-03-24T13:02:41.108Z,15.70
2023-03-24T13:05:16.952Z,15.69
2023-03-24T13:07:47.598Z,15.56
2023-03-24T13:10:21.866Z,15.48
2023-03-24T13:12:56.586Z,15.55
2023-03-24T13:15:30.091Z,15.59
2023-03-24T13:18:18.757Z,15.65
2023-03-24T13:20:50.333Z,15.79
2023-03-24T13:23:35.889Z,15.69
2023-03-24T13:26:11.891Z,15.59
2023-03-24T13:28:48.352Z,15.70
2023-03-24T13:31:18.795Z,15.84
2023-03-24T13:33:47.402Z,15.93
2023-03-24T13:36:33.113Z,15.71
2023-03-24T13:39:06.832Z,15.08
2023-03-24T13:41:39.842Z,14.71
2023-03-24T13:44:10.822Z,14.30
2023-03-24T13:46:42.255Z,14.04
2023-03-24T13:49:15.600Z,13.73
2023-03-24T13:51:46.709Z,13.56
2023-03-24T13:54:18.477Z,13.34
2023-03-24T13:56:54.380Z,13.27
2023-03-24T13:59:28.361Z,13.26
2023-03-24T14:02:22.534Z,13.22
2023-03-24T14:05:03.099Z,13.02
2023-03-24T14:07:34.336Z,12.70
2023-03-24T14:10:13.002Z,12.37
2023-03-24T14:12:54.500Z,12.11
2023-03-24T14:15:27.386Z,11.94
2023-03-24T14:17:57.816Z,11.72
2023-03-24T14:20:30.489Z,11.56
2023-03-24T14:22:58.825Z,11.65
2023-03-24T14:25:30.792Z,11.90
2023-03-24T14:28:21.251Z,12.22
2023-03-24T14:31:15.591Z,12.42
2023-03-24T14:34:02.260Z,12.39
2023-03-24T14:36:32.939Z,12.52
2023-03-24T14:39:13.786Z,12.63
2023-03-24T14:41:44.472Z,12.71
2023-03-24T14:44:14.382Z,12.69
2023-03-24T14:46:44.602Z,12.67
2023-03-24T14:49:25.546Z,12.56
2023-03-24T14:52:01.818Z,12.58
2023-03-24T14:54:40.028Z,12.67
2023-03-24T14:57:11.485Z,12.68
2023-03-24T14:59:49.896Z,12.62
2023-03-24T15:02:29.031Z,12.77
2023-03-24T15:05:26.515Z,12.67
2023-03-24T15:08:10.417Z,12.65
2023-03-24T15:10:43.441Z,12.74
2023-03-24T15:13:37.088Z,12.67
2023-03-24T15:16:18.039Z,12.76
2023-03-24T15:18:59.973Z,12.77
2023-03-24T15:21:34.185Z,12.75
2023-03-24T15:24:03.913Z,12.70
2023-03-24T15:26:33.466Z,12.69
2023-03-24T15:29:04.110Z,12.67
2023-03-24T15:31:34.629Z,12.61
2023-03-24T15:34:07.977Z,12.44
2023-03-24T15:36:45.780Z,12.35
2023-03-24T15:39:22.522Z,12.27
2023-03-24T15:41:53.339Z,12.13
2023-03-24T15:44:25.487Z,12.24
2023-03-24T15:46:57.611Z,12.12
2023-03-24T15:49:28.374Z,12.02
2023-03-24T15:52:00.679Z,11.97
2023-03-24T15:54:32.228Z,11.97
2023-03-24T15:57:01.440Z,11.91
2023-03-24T15:59:36.841Z,11.96
2023-03-24T16:02:17.556Z,11.89
2023-03-24T16:04:54.378Z,11.86
2023-03-24T16:07:33.460Z,11.86
2023-03-24T16:10:06.198Z,11.76
2023-03-24T16:12:36.145Z,11.69
2023-03-24T16:15:05.859Z,11.65
2023-03-24T16:17:35.545Z,11.59
2023-03-24T16:20:09.032Z,11.47
2023-03-24T16:22:37.202Z,11.42
2023-03-24T16:25:06.392Z,11.43
2023-03-24T16:27:34.561Z,11.47
2023-03-24T16:30:02.940Z,11.46
2023-03-24T16:32:31.093Z,11.46
2023-03-24T16:35:00.684Z,11.47
2023-03-24T16:37:28.854Z,11.54
2023-03-24T16:39:57.046Z,11.44
2023-03-24T16:42:25.130Z,11.38
2023-03-24T16:44:53.318Z,11.33
2023-03-24T16:47:22.624Z,11.25
2023-03-24T16:49:50.771Z,11.24
2023-03-24T16:52:20.447Z,11.20
2023-03-24T16:54:50.681Z,11.13
2023-03-24T16:57:18.759Z,11.15
2023-03-24T16:59:46.832Z,11.17
2023-03-24T17:02:14.986Z,11.07
2023-03-24T17:04:44.654Z,11.05
2023-03-24T17:07:12.826Z,11.09
2023-03-24T17:09:42.505Z,11.06
2023-03-24T17:12:10.886Z,10.96
2023-03-24T17:14:39.148Z,10.88
2023-03-24T17:17:11.699Z,10.92
2023-03-24T17:19:42.098Z,10.90
2023-03-24T17:22:11.755Z,10.84
2023-03-24T17:24:42.412Z,10.86
2023-03-24T17:27:14.100Z,10.77
2023-03-24T17:29:42.236Z,10.75
2023-03-24T17:32:10.726Z,10.73
2023-03-24T17:34:39.061Z,10.75
2023-03-24T17:37:07.389Z,10.63
2023-03-24T17:39:35.752Z,10.63
2023-03-24T17:42:05.772Z,10.62
2023-03-24T17:44:34.933Z,10.61
2023-03-24T17:47:03.263Z,10.58
2023-03-24T17:49:31.725Z,10.56
2023-03-24T17:51:59.892Z,10.53
2023-03-24T17:54:28.257Z,10.40
2023-03-24T17:56:56.546Z,10.37
2023-03-24T17:59:26.571Z,10.30
2023-03-24T18:01:54.806Z,10.31
2023-03-24T18:04:23.955Z,10.27
2023-03-24T18:06:52.141Z,10.21
2023-03-24T18:09:20.333Z,10.20
2023-03-24T18:11:48.703Z,10.17
2023-03-24T18:14:18.781Z,10.13
2023-03-24T18:16:48.306Z,10.10
2023-03-24T18:19:16.511Z,10.09
2023-03-24T18:21:45.511Z,10.12
2023-03-24T18:24:13.852Z,10.09
2023-03-24T18:26:42.181Z,10.04
2023-03-24T18:29:10.890Z,10.04
2023-03-24T18:31:39.076Z,10.06
2023-03-24T18:34:08.738Z,10.07
2023-03-24T18:36:36.882Z,9.99
2023-03-24T18:39:07.773Z,9.89
2023-03-24T18:41:37.284Z,9.85
2023-03-24T18:44:07.407Z,9.86
2023-03-24T18:46:35.639Z,9.86
2023-03-24T18:49:04.078Z,9.83
2023-03-24T18:51:35.752Z,9.76
2023-03-24T18:54:04.182Z,9.78
2023-03-24T18:56:32.395Z,9.78
2023-03-24T18:59:00.854Z,9.79
2023-03-24T19:01:30.394Z,9.78
2023-03-24T19:03:58.691Z,9.75
2023-03-24T19:06:31.320Z,9.75
2023-03-24T19:09:01.189Z,9.73
2023-03-24T19:11:29.836Z,9.71
2023-03-24T19:13:59.449Z,9.71
2023-03-24T19:16:27.665Z,9.68
2023-03-24T19:18:57.904Z,9.61
2023-03-24T19:21:27.651Z,9.62
2023-03-24T19:23:57.127Z,9.59
2023-03-24T19:26:26.920Z,9.65
2023-03-24T19:28:55.609Z,9.66
2023-03-24T19:31:23.742Z,9.59
2023-03-24T19:33:54.354Z,9.62
2023-03-24T19:36:22.571Z,9.56
2023-03-24T19:38:51.058Z,9.53
2023-03-24T19:41:19.338Z,9.55
2023-03-24T19:43:48.923Z,9.58
2023-03-24T19:46:21.068Z,9.56
2023-03-24T19:48:49.302Z,9.55
2023-03-24T19:51:18.596Z,9.55
2023-03-24T19:53:46.789Z,9.51
2023-03-24T19:56:17.496Z,9.54
2023-03-24T19:58:45.780Z,9.51
2023-03-24T20:01:15.688Z,9.58
2023-03-24T20:03:44.004Z,9.53
2023-03-24T20:06:12.341Z,9.54
2023-03-24T20:08:40.973Z,9.60
2023-03-24T20:11:09.583Z,9.64
2023-03-24T20:13:37.871Z,9.68
2023-03-24T20:16:06.661Z,9.66
2023-03-24T20:18:36.820Z,9.70
2023-03-24T20:21:06.463Z,9.70
2023-03-24T20:23:34.635Z,9.76
2023-03-24T20:26:03.238Z,9.69
2023-03-24T20:28:31.661Z,9.72
2023-03-24T20:31:01.957Z,9.77
2023-03-24T20:33:30.341Z,9.75
2023-03-24T20:36:00.426Z,9.79
2023-03-24T20:38:28.650Z,9.83
2023-03-24T20:41:00.794Z,9.84
2023-03-24T20:43:31.050Z,9.92
2023-03-24T20:45:59.158Z,9.90
2023-03-24T20:48:27.785Z,9.90
2023-03-24T20:50:56.276Z,9.91
2023-03-24T20:53:27.377Z,9.94
2023-03-24T20:55:59.957Z,9.97
2023-03-24T20:58:28.693Z,9.91
2023-03-24T21:00:57.299Z,9.90
2023-03-24T21:03:26.436Z,9.88
2023-03-24T21:05:54.963Z,9.87
2023-03-24T21:08:23.123Z,9.83
2023-03-24T21:10:56.458Z,9.80
2023-03-24T21:13:24.708Z,9.80
2023-03-24T21:15:53.125Z,9.85
2023-03-24T21:18:21.320Z,9.85
2023-03-24T21:20:55.319Z,9.87
2023-03-24T21:23:24.002Z,9.91
2023-03-24T21:25:53.644Z,9.89
2023-03-24T21:28:21.749Z,9.84
2023-03-24T21:30:49.888Z,9.82
2023-03-24T21:33:17.982Z,9.84
2023-03-24T21:35:46.637Z,9.85
2023-03-24T21:38:16.065Z,9.82
2023-03-24T21:40:44.584Z,9.81
2023-03-24T21:43:15.001Z,9.77
2023-03-24T21:45:46.131Z,9.78
2023-03-24T21:48:16.306Z,9.72
2023-03-24T21:50:45.816Z,9.72
2023-03-24T21:53:15.973Z,9.67
2023-03-24T21:55:51.407Z,9.71
2023-03-24T21:58:21.698Z,9.70
2023-03-24T22:00:52.319Z,9.73
2023-03-24T22:03:21.778Z,9.70
2023-03-24T22:05:50.233Z,9.69
2023-03-24T22:08:22.664Z,9.65
2023-03-24T22:10:54.379Z,9.59
2023-03-24T22:13:23.997Z,9.57
2023-03-24T22:15:56.310Z,9.58
2023-03-24T22:18:24.927Z,9.59
2023-03-24T22:20:57.093Z,9.61
2023-03-24T22:23:25.312Z,9.60
2023-03-24T22:25:53.969Z,9.59
2023-03-24T22:28:23.598Z,9.62
2023-03-24T22:30:51.705Z,9.71
2023-03-24T22:33:19.931Z,9.73
2023-03-24T22:35:48.311Z,9.69
2023-03-24T22:38:17.413Z,9.63
2023-03-24T22:40:45.490Z,9.61
2023-03-24T22:43:13.631Z,9.65
2023-03-24T22:45:43.544Z,9.57
2023-03-24T22:48:12.859Z,9.58
2023-03-24T22:50:42.399Z,9.58
2023-03-24T22:53:10.923Z,9.59
2023-03-24T22:55:42.136Z,9.56
2023-03-24T22:58:10.894Z,9.53
2023-03-24T23:00:39.051Z,9.53
2023-03-24T23:03:09.579Z,9.56
2023-03-24T23:05:41.482Z,9.58
2023-03-24T23:08:11.681Z,9.55
2023-03-24T23:10:40.864Z,9.51
2023-03-24T23:13:10.622Z,9.51
2023-03-24T23:15:39.264Z,9.48
2023-03-24T23:18:09.062Z,9.53
2023-03-24T23:20:37.707Z,9.56
2023-03-24T23:23:07.084Z,9.59
2023-03-24T23:25:40.305Z,9.61
2023-03-24T23:28:08.477Z,9.62
2023-03-24T23:30:37.284Z,9.61
2023-03-24T23:33:05.539Z,9.57
2023-03-24T23:35:35.989Z,9.58
2023-03-24T23:38:05.532Z,9.58
2023-03-24T23:40:33.823Z,9.58
2023-03-24T23:43:03.321Z,9.62
2023-03-24T23:45:31.503Z,9.61
2023-03-24T23:47:59.916Z,9.65
2023-03-24T23:50:29.302Z,9.66
2023-03-24T23:52:59.244Z,9.68
2023-03-24T23:55:28.100Z,9.71
2023-03-24T23:57:56.707Z,9.72
